sensor_id;sensor_type;location;lat;lon;timestamp;P1;durP1;ratioP1;P2;durP2;ratioP2
20012;SDS011;10167;42.852;23.042;2022-08-14T00:00:52;10.75;;;5.68;;
20012;SDS011;10167;42.852;23.042;2022-08-14T00:03:20;8.75;;;5.28;;
20012;SDS011;10167;42.852;23.042;2022-08-14T00:05:56;12.15;;;5.43;;
20012;SDS011;10167;42.852;23.042;2022-08-14T00:08:26;8.18;;;4.88;;
20012;SDS011;10167;42.852;23.042;2022-08-14T00:11:11;10.23;;;5.38;;
20012;SDS011;10167;42.852;23.042;2022-08-14T00:13:38;10.82;;;5.50;;
20012;SDS011;10167;42.852;23.042;2022-08-14T00:16:07;9.13;;;5.38;;
20012;SDS011;10167;42.852;23.042;2022-08-14T00:23:33;8.82;;;4.90;;
20012;SDS011;10167;42.852;23.042;2022-08-14T00:26:00;10.10;;;5.32;;
20012;SDS011;10167;42.852;23.042;2022-08-14T00:28:34;7.88;;;4.60;;
20012;SDS011;10167;42.852;23.042;2022-08-14T00:31:03;9.60;;;4.80;;
20012;SDS011;10167;42.852;23.042;2022-08-14T00:33:34;11.07;;;5.60;;
20012;SDS011;10167;42.852;23.042;2022-08-14T00:36:20;10.75;;;5.57;;
20012;SDS011;10167;42.852;23.042;2022-08-14T00:44:34;9.60;;;5.25;;
20012;SDS011;10167;42.852;23.042;2022-08-14T00:47:03;10.90;;;5.25;;
20012;SDS011;10167;42.852;23.042;2022-08-14T00:49:36;9.32;;;5.15;;
20012;SDS011;10167;42.852;23.042;2022-08-14T00:52:09;7.82;;;5.00;;
20012;SDS011;10167;42.852;23.042;2022-08-14T00:54:40;9.18;;;5.07;;
20012;SDS011;10167;42.852;23.042;2022-08-14T00:57:08;7.75;;;4.40;;
20012;SDS011;10167;42.852;23.042;2022-08-14T00:59:37;7.32;;;4.88;;
20012;SDS011;10167;42.852;23.042;2022-08-14T01:07:04;10.95;;;5.55;;
20012;SDS011;10167;42.852;23.042;2022-08-14T01:09:34;8.73;;;5.10;;
20012;SDS011;10167;42.852;23.042;2022-08-14T01:12:05;11.98;;;4.25;;
20012;SDS011;10167;42.852;23.042;2022-08-14T01:14:33;8.73;;;4.65;;
20012;SDS011;10167;42.852;23.042;2022-08-14T01:17:01;7.68;;;4.72;;
20012;SDS011;10167;42.852;23.042;2022-08-14T01:19:29;7.50;;;4.22;;
20012;SDS011;10167;42.852;23.042;2022-08-14T01:22:16;7.25;;;4.03;;
20012;SDS011;10167;42.852;23.042;2022-08-14T01:29:55;8.23;;;4.80;;
20012;SDS011;10167;42.852;23.042;2022-08-14T01:32:30;9.55;;;5.03;;
20012;SDS011;10167;42.852;23.042;2022-08-14T01:35:03;7.95;;;4.53;;
20012;SDS011;10167;42.852;23.042;2022-08-14T01:37:53;9.30;;;4.50;;
20012;SDS011;10167;42.852;23.042;2022-08-14T01:40:23;6.95;;;4.00;;
20012;SDS011;10167;42.852;23.042;2022-08-14T01:43:02;9.25;;;5.20;;
20012;SDS011;10167;42.852;23.042;2022-08-14T01:45:38;6.32;;;4.35;;
20012;SDS011;10167;42.852;23.042;2022-08-14T01:53:16;11.25;;;5.38;;
20012;SDS011;10167;42.852;23.042;2022-08-14T01:55:44;7.10;;;4.38;;
20012;SDS011;10167;42.852;23.042;2022-08-14T01:58:14;7.25;;;4.68;;
20012;SDS011;10167;42.852;23.042;2022-08-14T02:00:56;8.65;;;4.88;;
20012;SDS011;10167;42.852;23.042;2022-08-14T02:03:25;7.80;;;3.88;;
20012;SDS011;10167;42.852;23.042;2022-08-14T02:05:56;7.95;;;4.93;;
20012;SDS011;10167;42.852;23.042;2022-08-14T02:08:25;12.05;;;5.00;;
20012;SDS011;10167;42.852;23.042;2022-08-14T02:16:16;11.55;;;5.30;;
20012;SDS011;10167;42.852;23.042;2022-08-14T02:18:48;9.02;;;4.85;;
20012;SDS011;10167;42.852;23.042;2022-08-14T02:21:18;7.68;;;4.60;;
20012;SDS011;10167;42.852;23.042;2022-08-14T02:23:49;8.18;;;4.78;;
20012;SDS011;10167;42.852;23.042;2022-08-14T02:26:21;7.55;;;4.15;;
20012;SDS011;10167;42.852;23.042;2022-08-14T02:28:57;9.20;;;4.80;;
20012;SDS011;10167;42.852;23.042;2022-08-14T02:34:08;7.97;;;4.63;;
20012;SDS011;10167;42.852;23.042;2022-08-14T02:36:53;8.30;;;4.78;;
20012;SDS011;10167;42.852;23.042;2022-08-14T02:39:33;8.25;;;4.40;;
20012;SDS011;10167;42.852;23.042;2022-08-14T02:42:03;7.65;;;4.55;;
20012;SDS011;10167;42.852;23.042;2022-08-14T02:44:40;7.43;;;4.68;;
20012;SDS011;10167;42.852;23.042;2022-08-14T02:47:16;7.18;;;4.43;;
20012;SDS011;10167;42.852;23.042;2022-08-14T02:49:48;7.22;;;4.30;;
20012;SDS011;10167;42.852;23.042;2022-08-14T02:57:29;7.55;;;4.15;;
20012;SDS011;10167;42.852;23.042;2022-08-14T03:00:07;7.57;;;4.05;;
20012;SDS011;10167;42.852;23.042;2022-08-14T03:02:44;7.35;;;4.35;;
20012;SDS011;10167;42.852;23.042;2022-08-14T03:05:25;6.75;;;3.78;;
20012;SDS011;10167;42.852;23.042;2022-08-14T03:08:05;8.00;;;4.25;;
20012;SDS011;10167;42.852;23.042;2022-08-14T03:10:36;9.57;;;4.55;;
20012;SDS011;10167;42.852;23.042;2022-08-14T03:15:45;7.40;;;4.13;;
20012;SDS011;10167;42.852;23.042;2022-08-14T03:18:16;8.95;;;4.55;;
20012;SDS011;10167;42.852;23.042;2022-08-14T03:20:44;7.63;;;4.10;;
20012;SDS011;10167;42.852;23.042;2022-08-14T03:23:12;8.38;;;3.88;;
20012;SDS011;10167;42.852;23.042;2022-08-14T03:25:42;9.32;;;4.97;;
20012;SDS011;10167;42.852;23.042;2022-08-14T03:28:10;8.93;;;5.28;;
20012;SDS011;10167;42.852;23.042;2022-08-14T03:30:56;7.00;;;4.05;;
20012;SDS011;10167;42.852;23.042;2022-08-14T03:36:03;6.60;;;4.18;;
20012;SDS011;10167;42.852;23.042;2022-08-14T03:38:53;9.45;;;4.78;;
20012;SDS011;10167;42.852;23.042;2022-08-14T03:41:41;6.05;;;3.80;;
20012;SDS011;10167;42.852;23.042;2022-08-14T03:44:09;8.35;;;4.07;;
20012;SDS011;10167;42.852;23.042;2022-08-14T03:46:56;8.52;;;4.75;;
20012;SDS011;10167;42.852;23.042;2022-08-14T03:49:24;9.60;;;5.03;;
20012;SDS011;10167;42.852;23.042;2022-08-14T03:51:56;6.53;;;4.30;;
20012;SDS011;10167;42.852;23.042;2022-08-14T03:59:38;7.88;;;4.45;;
20012;SDS011;10167;42.852;23.042;2022-08-14T04:02:05;8.93;;;4.80;;
20012;SDS011;10167;42.852;23.042;2022-08-14T04:04:53;8.05;;;4.57;;
20012;SDS011;10167;42.852;23.042;2022-08-14T04:07:20;8.65;;;4.00;;
20012;SDS011;10167;42.852;23.042;2022-08-14T04:09:48;6.88;;;4.43;;
20012;SDS011;10167;42.852;23.042;2022-08-14T04:12:18;11.88;;;5.10;;
20012;SDS011;10167;42.852;23.042;2022-08-14T04:14:53;6.75;;;4.40;;
20012;SDS011;10167;42.852;23.042;2022-08-14T04:22:19;7.03;;;4.38;;
20012;SDS011;10167;42.852;23.042;2022-08-14T04:24:48;7.53;;;4.35;;
20012;SDS011;10167;42.852;23.042;2022-08-14T04:27:16;7.03;;;3.95;;
20012;SDS011;10167;42.852;23.042;2022-08-14T04:29:44;8.85;;;5.28;;
20012;SDS011;10167;42.852;23.042;2022-08-14T04:32:11;8.90;;;4.57;;
20012;SDS011;10167;42.852;23.042;2022-08-14T04:35:00;10.38;;;4.90;;
20012;SDS011;10167;42.852;23.042;2022-08-14T04:37:37;9.27;;;4.47;;
20012;SDS011;10167;42.852;23.042;2022-08-14T04:45:22;7.30;;;4.57;;
20012;SDS011;10167;42.852;23.042;2022-08-14T04:47:56;8.68;;;5.05;;
20012;SDS011;10167;42.852;23.042;2022-08-14T04:50:59;7.50;;;4.60;;
20012;SDS011;10167;42.852;23.042;2022-08-14T04:53:29;8.68;;;4.97;;
20012;SDS011;10167;42.852;23.042;2022-08-14T04:56:02;6.95;;;4.40;;
20012;SDS011;10167;42.852;23.042;2022-08-14T04:58:52;6.47;;;3.85;;
20012;SDS011;10167;42.852;23.042;2022-08-14T05:06:27;8.43;;;5.22;;
20012;SDS011;10167;42.852;23.042;2022-08-14T05:09:05;6.82;;;4.22;;
20012;SDS011;10167;42.852;23.042;2022-08-14T05:11:37;8.27;;;4.93;;
20012;SDS011;10167;42.852;23.042;2022-08-14T05:14:05;7.45;;;4.32;;
20012;SDS011;10167;42.852;23.042;2022-08-14T05:16:52;5.13;;;3.55;;
20012;SDS011;10167;42.852;23.042;2022-08-14T05:19:28;6.35;;;3.45;;
20012;SDS011;10167;42.852;23.042;2022-08-14T05:24:37;6.65;;;3.58;;
20012;SDS011;10167;42.852;23.042;2022-08-14T05:27:05;6.80;;;3.90;;
20012;SDS011;10167;42.852;23.042;2022-08-14T05:29:34;5.07;;;3.55;;
20012;SDS011;10167;42.852;23.042;2022-08-14T05:32:02;5.10;;;3.25;;
20012;SDS011;10167;42.852;23.042;2022-08-14T05:34:32;7.72;;;3.58;;
20012;SDS011;10167;42.852;23.042;2022-08-14T05:37:00;5.18;;;3.13;;
20012;SDS011;10167;42.852;23.042;2022-08-14T05:39:29;6.22;;;3.65;;
20012;SDS011;10167;42.852;23.042;2022-08-14T05:47:02;4.90;;;2.92;;
20012;SDS011;10167;42.852;23.042;2022-08-14T05:49:30;5.57;;;2.75;;
20012;SDS011;10167;42.852;23.042;2022-08-14T05:52:00;9.48;;;3.88;;
20012;SDS011;10167;42.852;23.042;2022-08-14T05:54:28;10.95;;;4.13;;
20012;SDS011;10167;42.852;23.042;2022-08-14T05:57:02;5.53;;;3.00;;
20012;SDS011;10167;42.852;23.042;2022-08-14T05:59:31;5.40;;;3.00;;
20012;SDS011;10167;42.852;23.042;2022-08-14T06:04:49;7.57;;;2.05;;
20012;SDS011;10167;42.852;23.042;2022-08-14T06:07:16;5.15;;;1.65;;
20012;SDS011;10167;42.852;23.042;2022-08-14T06:09:44;1.83;;;1.55;;
20012;SDS011;10167;42.852;23.042;2022-08-14T06:12:18;1.98;;;1.45;;
20012;SDS011;10167;42.852;23.042;2022-08-14T06:15:06;3.13;;;1.90;;
20012;SDS011;10167;42.852;23.042;2022-08-14T06:17:42;4.10;;;1.80;;
20012;SDS011;10167;42.852;23.042;2022-08-14T06:22:50;1.65;;;1.48;;
20012;SDS011;10167;42.852;23.042;2022-08-14T06:25:18;13.77;;;2.45;;
20012;SDS011;10167;42.852;23.042;2022-08-14T06:27:47;3.25;;;2.17;;
20012;SDS011;10167;42.852;23.042;2022-08-14T06:30:16;2.65;;;1.52;;
20012;SDS011;10167;42.852;23.042;2022-08-14T06:32:45;8.13;;;1.98;;
20012;SDS011;10167;42.852;23.042;2022-08-14T06:35:18;3.78;;;2.53;;
20012;SDS011;10167;42.852;23.042;2022-08-14T06:37:50;3.08;;;2.05;;
20012;SDS011;10167;42.852;23.042;2022-08-14T06:44:46;5.85;;;2.85;;
20012;SDS011;10167;42.852;23.042;2022-08-14T06:47:13;8.10;;;2.42;;
20012;SDS011;10167;42.852;23.042;2022-08-14T06:49:41;4.10;;;2.50;;
20012;SDS011;10167;42.852;23.042;2022-08-14T06:52:21;4.60;;;2.30;;
20012;SDS011;10167;42.852;23.042;2022-08-14T06:54:50;3.78;;;2.03;;
20012;SDS011;10167;42.852;23.042;2022-08-14T06:57:18;5.88;;;2.50;;
20012;SDS011;10167;42.852;23.042;2022-08-14T06:59:48;2.90;;;1.77;;
20012;SDS011;10167;42.852;23.042;2022-08-14T07:04:58;5.75;;;2.20;;
20012;SDS011;10167;42.852;23.042;2022-08-14T07:07:49;3.42;;;1.60;;
20012;SDS011;10167;42.852;23.042;2022-08-14T07:10:17;4.22;;;1.92;;
20012;SDS011;10167;42.852;23.042;2022-08-14T07:12:47;4.95;;;2.33;;
20012;SDS011;10167;42.852;23.042;2022-08-14T07:15:28;2.88;;;1.85;;
20012;SDS011;10167;42.852;23.042;2022-08-14T07:18:00;5.10;;;2.25;;
20012;SDS011;10167;42.852;23.042;2022-08-14T07:25:32;3.55;;;2.78;;
20012;SDS011;10167;42.852;23.042;2022-08-14T07:28:10;3.30;;;2.33;;
20012;SDS011;10167;42.852;23.042;2022-08-14T07:30:47;4.50;;;2.47;;
20012;SDS011;10167;42.852;23.042;2022-08-14T07:33:18;5.18;;;2.42;;
20012;SDS011;10167;42.852;23.042;2022-08-14T07:35:55;6.85;;;3.17;;
20012;SDS011;10167;42.852;23.042;2022-08-14T07:38:26;4.45;;;2.47;;
20012;SDS011;10167;42.852;23.042;2022-08-14T07:43:40;3.42;;;1.88;;
20012;SDS011;10167;42.852;23.042;2022-08-14T07:46:13;4.35;;;2.65;;
20012;SDS011;10167;42.852;23.042;2022-08-14T07:48:54;3.45;;;2.50;;
20012;SDS011;10167;42.852;23.042;2022-08-14T07:51:22;2.45;;;1.90;;
20012;SDS011;10167;42.852;23.042;2022-08-14T07:53:51;3.40;;;2.60;;
20012;SDS011;10167;42.852;23.042;2022-08-14T07:56:23;4.15;;;2.05;;
20012;SDS011;10167;42.852;23.042;2022-08-14T07:59:15;2.28;;;1.50;;
20012;SDS011;10167;42.852;23.042;2022-08-14T08:06:21;4.30;;;2.05;;
20012;SDS011;10167;42.852;23.042;2022-08-14T08:08:49;5.93;;;2.33;;
20012;SDS011;10167;42.852;23.042;2022-08-14T08:11:29;6.65;;;2.35;;
20012;SDS011;10167;42.852;23.042;2022-08-14T08:14:04;3.97;;;2.13;;
20012;SDS011;10167;42.852;23.042;2022-08-14T08:16:42;3.90;;;1.98;;
20012;SDS011;10167;42.852;23.042;2022-08-14T08:19:11;3.13;;;1.85;;
20012;SDS011;10167;42.852;23.042;2022-08-14T08:24:39;2.83;;;1.55;;
20012;SDS011;10167;42.852;23.042;2022-08-14T08:27:13;2.05;;;1.50;;
20012;SDS011;10167;42.852;23.042;2022-08-14T08:29:43;1.63;;;1.23;;
20012;SDS011;10167;42.852;23.042;2022-08-14T08:32:17;2.38;;;1.10;;
20012;SDS011;10167;42.852;23.042;2022-08-14T08:34:45;1.73;;;1.20;;
20012;SDS011;10167;42.852;23.042;2022-08-14T08:37:15;0.70;;;0.68;;
20012;SDS011;10167;42.852;23.042;2022-08-14T08:39:45;1.90;;;1.23;;
20012;SDS011;10167;42.852;23.042;2022-08-14T08:47:38;1.35;;;1.10;;
20012;SDS011;10167;42.852;23.042;2022-08-14T08:50:14;1.75;;;1.17;;
20012;SDS011;10167;42.852;23.042;2022-08-14T08:52:57;2.58;;;1.20;;
20012;SDS011;10167;42.852;23.042;2022-08-14T08:55:29;3.13;;;1.50;;
20012;SDS011;10167;42.852;23.042;2022-08-14T08:58:00;1.33;;;0.80;;
20012;SDS011;10167;42.852;23.042;2022-08-14T09:00:38;5.32;;;2.85;;
20012;SDS011;10167;42.852;23.042;2022-08-14T09:08:10;1.20;;;0.98;;
20012;SDS011;10167;42.852;23.042;2022-08-14T09:10:59;1.52;;;0.90;;
20012;SDS011;10167;42.852;23.042;2022-08-14T09:13:27;1.05;;;0.80;;
20012;SDS011;10167;42.852;23.042;2022-08-14T09:15:59;0.63;;;0.63;;
20012;SDS011;10167;42.852;23.042;2022-08-14T09:18:44;1.02;;;0.85;;
20012;SDS011;10167;42.852;23.042;2022-08-14T09:21:13;1.10;;;0.88;;
20012;SDS011;10167;42.852;23.042;2022-08-14T09:26:26;1.17;;;0.88;;
20012;SDS011;10167;42.852;23.042;2022-08-14T09:28:58;1.85;;;1.00;;
20012;SDS011;10167;42.852;23.042;2022-08-14T09:31:25;1.10;;;1.00;;
20012;SDS011;10167;42.852;23.042;2022-08-14T09:34:17;0.90;;;0.80;;
20012;SDS011;10167;42.852;23.042;2022-08-14T09:37:00;0.77;;;0.75;;
20012;SDS011;10167;42.852;23.042;2022-08-14T09:39:47;1.38;;;0.90;;
20012;SDS011;10167;42.852;23.042;2022-08-14T09:45:17;0.93;;;0.82;;
20012;SDS011;10167;42.852;23.042;2022-08-14T09:47:48;1.07;;;0.93;;
20012;SDS011;10167;42.852;23.042;2022-08-14T09:50:22;1.00;;;0.90;;
20012;SDS011;10167;42.852;23.042;2022-08-14T09:52:54;1.27;;;0.98;;
20012;SDS011;10167;42.852;23.042;2022-08-14T09:55:24;1.25;;;0.82;;
20012;SDS011;10167;42.852;23.042;2022-08-14T09:58:03;0.80;;;0.80;;
20012;SDS011;10167;42.852;23.042;2022-08-14T10:00:47;0.73;;;0.63;;
20012;SDS011;10167;42.852;23.042;2022-08-14T10:06:11;1.20;;;0.68;;
20012;SDS011;10167;42.852;23.042;2022-08-14T10:08:46;1.45;;;1.10;;
20012;SDS011;10167;42.852;23.042;2022-08-14T10:11:18;6.70;;;1.30;;
20012;SDS011;10167;42.852;23.042;2022-08-14T10:13:50;1.00;;;0.90;;
20012;SDS011;10167;42.852;23.042;2022-08-14T10:16:22;1.65;;;1.17;;
20012;SDS011;10167;42.852;23.042;2022-08-14T10:19:00;1.40;;;0.90;;
20012;SDS011;10167;42.852;23.042;2022-08-14T10:21:34;1.45;;;0.90;;
20012;SDS011;10167;42.852;23.042;2022-08-14T10:26:51;1.00;;;0.77;;
20012;SDS011;10167;42.852;23.042;2022-08-14T10:29:30;1.77;;;1.27;;
20012;SDS011;10167;42.852;23.042;2022-08-14T10:31:59;1.10;;;1.00;;
20012;SDS011;10167;42.852;23.042;2022-08-14T10:34:43;1.00;;;0.75;;
20012;SDS011;10167;42.852;23.042;2022-08-14T10:37:18;1.40;;;1.00;;
20012;SDS011;10167;42.852;23.042;2022-08-14T10:39:57;1.52;;;0.93;;
20012;SDS011;10167;42.852;23.042;2022-08-14T10:45:30;1.15;;;0.90;;
20012;SDS011;10167;42.852;23.042;2022-08-14T10:48:12;1.20;;;0.77;;
20012;SDS011;10167;42.852;23.042;2022-08-14T10:51:02;1.23;;;0.80;;
20012;SDS011;10167;42.852;23.042;2022-08-14T10:53:34;1.37;;;1.13;;
20012;SDS011;10167;42.852;23.042;2022-08-14T10:56:09;1.30;;;1.05;;
20012;SDS011;10167;42.852;23.042;2022-08-14T11:04:26;1.48;;;1.10;;
20012;SDS011;10167;42.852;23.042;2022-08-14T11:06:57;2.40;;;1.00;;
20012;SDS011;10167;42.852;23.042;2022-08-14T11:09:25;1.42;;;1.33;;
20012;SDS011;10167;42.852;23.042;2022-08-14T11:11:58;1.25;;;1.00;;
20012;SDS011;10167;42.852;23.042;2022-08-14T11:14:53;1.00;;;0.90;;
20012;SDS011;10167;42.852;23.042;2022-08-14T11:17:30;1.00;;;0.80;;
20012;SDS011;10167;42.852;23.042;2022-08-14T11:20:00;1.35;;;1.08;;
20012;SDS011;10167;42.852;23.042;2022-08-14T11:25:36;1.00;;;0.90;;
20012;SDS011;10167;42.852;23.042;2022-08-14T11:28:19;1.27;;;1.02;;
20012;SDS011;10167;42.852;23.042;2022-08-14T11:31:11;0.85;;;0.80;;
20012;SDS011;10167;42.852;23.042;2022-08-14T11:33:40;1.00;;;0.90;;
20012;SDS011;10167;42.852;23.042;2022-08-14T11:36:08;1.20;;;1.10;;
20012;SDS011;10167;42.852;23.042;2022-08-14T11:38:45;1.00;;;0.90;;
20012;SDS011;10167;42.852;23.042;2022-08-14T11:41:15;1.45;;;1.20;;
20012;SDS011;10167;42.852;23.042;2022-08-14T11:46:27;3.65;;;1.10;;
20012;SDS011;10167;42.852;23.042;2022-08-14T11:49:03;1.30;;;1.20;;
20012;SDS011;10167;42.852;23.042;2022-08-14T11:51:32;4.50;;;1.00;;
20012;SDS011;10167;42.852;23.042;2022-08-14T11:54:20;1.00;;;0.88;;
20012;SDS011;10167;42.852;23.042;2022-08-14T11:57:01;1.10;;;1.00;;
20012;SDS011;10167;42.852;23.042;2022-08-14T11:59:31;1.00;;;0.90;;
20012;SDS011;10167;42.852;23.042;2022-08-14T12:02:08;1.48;;;1.25;;
20012;SDS011;10167;42.852;23.042;2022-08-14T12:06:09;1.10;;;1.00;;
20012;SDS011;10167;42.852;23.042;2022-08-14T12:08:58;0.80;;;0.80;;
20012;SDS011;10167;42.852;23.042;2022-08-14T12:11:36;1.23;;;1.10;;
20012;SDS011;10167;42.852;23.042;2022-08-14T12:14:10;1.50;;;1.05;;
20012;SDS011;10167;42.852;23.042;2022-08-14T12:16:57;1.05;;;0.95;;
20012;SDS011;10167;42.852;23.042;2022-08-14T12:19:28;1.35;;;0.98;;
20012;SDS011;10167;42.852;23.042;2022-08-14T12:27:37;1.00;;;0.90;;
20012;SDS011;10167;42.852;23.042;2022-08-14T12:30:25;1.10;;;0.98;;
20012;SDS011;10167;42.852;23.042;2022-08-14T12:33:00;1.33;;;1.08;;
20012;SDS011;10167;42.852;23.042;2022-08-14T12:38:05;2.00;;;0.75;;
20012;SDS011;10167;42.852;23.042;2022-08-14T12:40:35;2.80;;;1.00;;
20012;SDS011;10167;42.852;23.042;2022-08-14T12:48:17;1.00;;;0.90;;
20012;SDS011;10167;42.852;23.042;2022-08-14T12:50:57;4.18;;;0.85;;
20012;SDS011;10167;42.852;23.042;2022-08-14T12:53:32;10.63;;;1.85;;
20012;SDS011;10167;42.852;23.042;2022-08-14T12:56:04;1.00;;;0.90;;
20012;SDS011;10167;42.852;23.042;2022-08-14T12:58:53;1.35;;;1.15;;
20012;SDS011;10167;42.852;23.042;2022-08-14T13:01:23;1.48;;;1.00;;
20012;SDS011;10167;42.852;23.042;2022-08-14T13:04:03;1.10;;;1.00;;
20012;SDS011;10167;42.852;23.042;2022-08-14T13:09:24;1.67;;;1.08;;
20012;SDS011;10167;42.852;23.042;2022-08-14T13:12:04;1.10;;;1.00;;
20012;SDS011;10167;42.852;23.042;2022-08-14T13:14:52;1.13;;;0.93;;
20012;SDS011;10167;42.852;23.042;2022-08-14T13:17:23;1.48;;;1.05;;
20012;SDS011;10167;42.852;23.042;2022-08-14T13:19:54;3.42;;;0.90;;
20012;SDS011;10167;42.852;23.042;2022-08-14T13:22:23;1.00;;;0.90;;
20012;SDS011;10167;42.852;23.042;2022-08-14T13:30:17;1.35;;;1.13;;
20012;SDS011;10167;42.852;23.042;2022-08-14T13:35:18;2.03;;;1.10;;
20012;SDS011;10167;42.852;23.042;2022-08-14T13:37:48;1.20;;;1.02;;
20012;SDS011;10167;42.852;23.042;2022-08-14T13:40:20;1.08;;;0.98;;
20012;SDS011;10167;42.852;23.042;2022-08-14T13:42:53;1.67;;;0.98;;
20012;SDS011;10167;42.852;23.042;2022-08-14T13:48:02;0.90;;;0.90;;
20012;SDS011;10167;42.852;23.042;2022-08-14T13:50:31;1.10;;;1.00;;
20012;SDS011;10167;42.852;23.042;2022-08-14T13:53:00;1.50;;;1.10;;
20012;SDS011;10167;42.852;23.042;2022-08-14T13:55:30;2.78;;;1.10;;
20012;SDS011;10167;42.852;23.042;2022-08-14T13:57:59;0.80;;;0.73;;
20012;SDS011;10167;42.852;23.042;2022-08-14T14:00:31;1.08;;;1.00;;
20012;SDS011;10167;42.852;23.042;2022-08-14T14:03:03;0.80;;;0.80;;
20012;SDS011;10167;42.852;23.042;2022-08-14T14:10:28;0.70;;;0.70;;
20012;SDS011;10167;42.852;23.042;2022-08-14T14:13:05;1.80;;;0.73;;
20012;SDS011;10167;42.852;23.042;2022-08-14T14:15:33;0.63;;;0.63;;
20012;SDS011;10167;42.852;23.042;2022-08-14T14:18:23;0.77;;;0.73;;
20012;SDS011;10167;42.852;23.042;2022-08-14T14:21:00;1.33;;;0.70;;
20012;SDS011;10167;42.852;23.042;2022-08-14T14:23:28;0.80;;;0.80;;
20012;SDS011;10167;42.852;23.042;2022-08-14T14:25:59;1.45;;;0.70;;
20012;SDS011;10167;42.852;23.042;2022-08-14T14:32:23;0.77;;;0.77;;
20012;SDS011;10167;42.852;23.042;2022-08-14T14:34:58;0.80;;;0.80;;
20012;SDS011;10167;42.852;23.042;2022-08-14T14:37:29;0.93;;;0.70;;
20012;SDS011;10167;42.852;23.042;2022-08-14T14:39:57;0.95;;;0.60;;
20012;SDS011;10167;42.852;23.042;2022-08-14T14:42:46;2.13;;;0.52;;
20012;SDS011;10167;42.852;23.042;2022-08-14T14:45:19;1.17;;;0.80;;
20012;SDS011;10167;42.852;23.042;2022-08-14T14:47:51;0.88;;;0.75;;
20012;SDS011;10167;42.852;23.042;2022-08-14T14:54:49;0.80;;;0.73;;
20012;SDS011;10167;42.852;23.042;2022-08-14T14:57:17;1.25;;;0.80;;
20012;SDS011;10167;42.852;23.042;2022-08-14T14:59:45;1.23;;;0.75;;
20012;SDS011;10167;42.852;23.042;2022-08-14T15:02:22;0.90;;;0.70;;
20012;SDS011;10167;42.852;23.042;2022-08-14T15:07:27;0.55;;;0.55;;
20012;SDS011;10167;42.852;23.042;2022-08-14T15:09:56;1.55;;;0.95;;
20012;SDS011;10167;42.852;23.042;2022-08-14T15:16:44;1.08;;;0.88;;
20012;SDS011;10167;42.852;23.042;2022-08-14T15:19:12;1.70;;;0.70;;
20012;SDS011;10167;42.852;23.042;2022-08-14T15:21:40;0.60;;;0.60;;
20012;SDS011;10167;42.852;23.042;2022-08-14T15:24:08;3.15;;;0.60;;
20012;SDS011;10167;42.852;23.042;2022-08-14T15:26:39;0.77;;;0.70;;
20012;SDS011;10167;42.852;23.042;2022-08-14T15:29:08;0.88;;;0.60;;
20012;SDS011;10167;42.852;23.042;2022-08-14T15:31:40;3.78;;;0.68;;
20012;SDS011;10167;42.852;23.042;2022-08-14T15:39:11;1.40;;;0.70;;
20012;SDS011;10167;42.852;23.042;2022-08-14T15:41:40;1.00;;;0.75;;
20012;SDS011;10167;42.852;23.042;2022-08-14T15:44:11;0.68;;;0.50;;
20012;SDS011;10167;42.852;23.042;2022-08-14T15:46:51;2.55;;;0.60;;
20012;SDS011;10167;42.852;23.042;2022-08-14T15:49:19;2.03;;;1.20;;
20012;SDS011;10167;42.852;23.042;2022-08-14T15:51:47;1.88;;;1.20;;
20012;SDS011;10167;42.852;23.042;2022-08-14T15:54:17;2.20;;;1.23;;
20012;SDS011;10167;42.852;23.042;2022-08-14T16:01:52;1.70;;;1.02;;
20012;SDS011;10167;42.852;23.042;2022-08-14T16:04:21;4.88;;;1.27;;
20012;SDS011;10167;42.852;23.042;2022-08-14T16:06:49;2.28;;;1.70;;
20012;SDS011;10167;42.852;23.042;2022-08-14T16:09:21;3.15;;;1.50;;
20012;SDS011;10167;42.852;23.042;2022-08-14T16:11:49;1.58;;;1.17;;
20012;SDS011;10167;42.852;23.042;2022-08-14T16:14:20;2.20;;;1.10;;
20012;SDS011;10167;42.852;23.042;2022-08-14T16:16:50;1.55;;;1.20;;
20012;SDS011;10167;42.852;23.042;2022-08-14T16:22:11;1.80;;;1.42;;
20012;SDS011;10167;42.852;23.042;2022-08-14T16:25:00;1.83;;;1.33;;
20012;SDS011;10167;42.852;23.042;2022-08-14T16:27:30;2.63;;;1.50;;
20012;SDS011;10167;42.852;23.042;2022-08-14T16:30:07;2.97;;;1.20;;
20012;SDS011;10167;42.852;23.042;2022-08-14T16:32:37;3.22;;;1.02;;
20012;SDS011;10167;42.852;23.042;2022-08-14T16:35:22;1.40;;;1.02;;
20012;SDS011;10167;42.852;23.042;2022-08-14T16:43:13;2.05;;;1.35;;
20012;SDS011;10167;42.852;23.042;2022-08-14T16:45:42;2.50;;;1.55;;
20012;SDS011;10167;42.852;23.042;2022-08-14T16:48:10;2.15;;;1.42;;
20012;SDS011;10167;42.852;23.042;2022-08-14T16:50:58;2.20;;;1.20;;
20012;SDS011;10167;42.852;23.042;2022-08-14T16:53:32;3.38;;;1.38;;
20012;SDS011;10167;42.852;23.042;2022-08-14T16:56:09;2.80;;;1.75;;
20012;SDS011;10167;42.852;23.042;2022-08-14T16:58:50;1.30;;;1.15;;
20012;SDS011;10167;42.852;23.042;2022-08-14T17:04:51;1.92;;;1.42;;
20012;SDS011;10167;42.852;23.042;2022-08-14T17:07:19;1.48;;;1.10;;
20012;SDS011;10167;42.852;23.042;2022-08-14T17:09:48;1.92;;;1.15;;
20012;SDS011;10167;42.852;23.042;2022-08-14T17:12:22;1.50;;;1.10;;
20012;SDS011;10167;42.852;23.042;2022-08-14T17:15:01;2.78;;;1.33;;
20012;SDS011;10167;42.852;23.042;2022-08-14T17:17:45;1.90;;;1.02;;
20012;SDS011;10167;42.852;23.042;2022-08-14T17:20:24;1.08;;;0.75;;
20012;SDS011;10167;42.852;23.042;2022-08-14T17:25:59;2.80;;;1.33;;
20012;SDS011;10167;42.852;23.042;2022-08-14T17:28:27;1.67;;;0.93;;
20012;SDS011;10167;42.852;23.042;2022-08-14T17:31:15;4.35;;;0.80;;
20012;SDS011;10167;42.852;23.042;2022-08-14T17:33:44;1.52;;;0.93;;
20012;SDS011;10167;42.852;23.042;2022-08-14T17:36:19;1.08;;;0.93;;
20012;SDS011;10167;42.852;23.042;2022-08-14T17:38:57;2.00;;;0.82;;
20012;SDS011;10167;42.852;23.042;2022-08-14T17:45:41;1.58;;;1.02;;
20012;SDS011;10167;42.852;23.042;2022-08-14T17:48:28;1.42;;;1.00;;
20012;SDS011;10167;42.852;23.042;2022-08-14T17:51:17;1.48;;;0.95;;
20012;SDS011;10167;42.852;23.042;2022-08-14T17:53:56;2.20;;;1.38;;
20012;SDS011;10167;42.852;23.042;2022-08-14T17:56:29;2.40;;;0.93;;
20012;SDS011;10167;42.852;23.042;2022-08-14T17:58:59;1.17;;;1.02;;
20012;SDS011;10167;42.852;23.042;2022-08-14T18:06:35;1.63;;;1.20;;
20012;SDS011;10167;42.852;23.042;2022-08-14T18:09:06;2.05;;;1.27;;
20012;SDS011;10167;42.852;23.042;2022-08-14T18:11:51;4.75;;;1.05;;
20012;SDS011;10167;42.852;23.042;2022-08-14T18:14:21;1.95;;;1.25;;
20012;SDS011;10167;42.852;23.042;2022-08-14T18:17:09;7.22;;;1.60;;
20012;SDS011;10167;42.852;23.042;2022-08-14T18:19:37;6.90;;;1.67;;
20012;SDS011;10167;42.852;23.042;2022-08-14T18:27:12;1.55;;;1.20;;
20012;SDS011;10167;42.852;23.042;2022-08-14T18:29:49;2.97;;;1.40;;
20012;SDS011;10167;42.852;23.042;2022-08-14T18:32:37;2.00;;;1.20;;
20012;SDS011;10167;42.852;23.042;2022-08-14T18:35:14;1.65;;;1.10;;
20012;SDS011;10167;42.852;23.042;2022-08-14T18:37:43;2.20;;;1.30;;
20012;SDS011;10167;42.852;23.042;2022-08-14T18:40:27;2.55;;;1.20;;
20012;SDS011;10167;42.852;23.042;2022-08-14T18:51:14;6.68;;;1.15;;
20012;SDS011;10167;42.852;23.042;2022-08-14T18:54:25;1.65;;;1.27;;
20012;SDS011;10167;42.852;23.042;2022-08-14T18:57:00;1.50;;;1.30;;
20012;SDS011;10167;42.852;23.042;2022-08-14T18:59:32;1.60;;;1.05;;
20012;SDS011;10167;42.852;23.042;2022-08-14T19:15:34;2.10;;;1.35;;
20012;SDS011;10167;42.852;23.042;2022-08-14T19:18:18;3.13;;;1.58;;